createdAt,value
2018-03-11T00:00:44.701Z,945.26
2018-03-11T00:01:44.721Z,945.25
2018-03-11T00:02:44.737Z,945.26
2018-03-11T00:03:44.757Z,945.25
2018-03-11T00:04:44.775Z,945.24
2018-03-11T00:05:44.845Z,945.26
2018-03-11T00:06:44.813Z,945.25
2018-03-11T00:07:44.834Z,945.23
2018-03-11T00:08:44.852Z,945.24
2018-03-11T00:09:44.870Z,945.25
2018-03-11T00:10:44.888Z,945.27
2018-03-11T00:11:44.908Z,945.28
2018-03-11T00:12:44.928Z,945.28
2018-03-11T00:13:44.947Z,945.28
2018-03-11T00:14:44.966Z,945.28
2018-03-11T00:15:44.984Z,945.25
2018-03-11T00:16:45.003Z,945.26
2018-03-11T00:17:45.022Z,945.29
2018-03-11T00:18:45.042Z,945.23
2018-03-11T00:19:45.060Z,945.21
2018-03-11T00:20:45.132Z,945.21
2018-03-11T00:21:45.100Z,945.16
2018-03-11T00:22:45.116Z,945.2
2018-03-11T00:23:45.133Z,945.17
2018-03-11T00:24:45.154Z,945.17
2018-03-11T00:25:45.171Z,945.18
2018-03-11T00:26:45.192Z,945.2
2018-03-11T00:27:45.210Z,945.17
2018-03-11T00:28:45.228Z,945.14
2018-03-11T00:29:45.248Z,945.19
2018-03-11T00:30:45.265Z,945.14
2018-03-11T00:31:45.284Z,945.14
2018-03-11T00:32:45.301Z,945.15
2018-03-11T00:33:45.321Z,945.12
2018-03-11T00:34:45.347Z,945.09
2018-03-11T00:35:45.408Z,945.07
2018-03-11T00:36:45.378Z,945.08
2018-03-11T00:37:45.392Z,945.1
2018-03-11T00:38:45.411Z,945.05
2018-03-11T00:39:45.431Z,945.03
2018-03-11T00:40:45.451Z,945.06
2018-03-11T00:41:45.469Z,945.01
2018-03-11T00:42:45.489Z,945.02
2018-03-11T00:43:45.511Z,944.98
2018-03-11T00:44:45.523Z,945.03
2018-03-11T00:45:45.544Z,944.97
2018-03-11T00:46:45.561Z,944.95
2018-03-11T00:47:45.580Z,944.92
2018-03-11T00:48:45.599Z,944.88
2018-03-11T00:49:45.617Z,944.9
2018-03-11T00:50:45.685Z,944.87
2018-03-11T00:51:45.653Z,944.86
2018-03-11T00:52:45.671Z,944.84
2018-03-11T00:53:45.689Z,944.84
2018-03-11T00:54:45.709Z,944.81
2018-03-11T00:55:45.727Z,944.78
2018-03-11T00:56:45.744Z,944.76
2018-03-11T00:57:45.772Z,944.79
2018-03-11T00:58:45.785Z,944.85
2018-03-11T00:59:45.800Z,944.87
2018-03-11T01:00:45.819Z,944.88
2018-03-11T01:01:45.838Z,944.88
2018-03-11T01:02:45.858Z,944.85
2018-03-11T01:03:45.874Z,944.85
2018-03-11T01:04:45.892Z,944.8
2018-03-11T01:05:45.912Z,944.86
2018-03-11T01:06:45.928Z,944.82
2018-03-11T01:07:45.998Z,944.8
2018-03-11T01:08:45.966Z,944.78
2018-03-11T01:09:45.983Z,944.77
2018-03-11T01:10:46.000Z,944.74
2018-03-11T01:11:46.025Z,944.72
2018-03-11T01:12:46.042Z,944.7
2018-03-11T01:13:46.057Z,944.69
2018-03-11T01:14:46.075Z,944.64
2018-03-11T01:15:46.094Z,944.67
2018-03-11T01:16:46.112Z,944.67
2018-03-11T01:17:46.131Z,944.7
2018-03-11T01:18:46.148Z,944.7
2018-03-11T01:19:46.167Z,944.67
2018-03-11T01:20:46.185Z,944.64
2018-03-11T01:21:46.201Z,944.62
2018-03-11T01:22:46.271Z,944.62
2018-03-11T01:23:46.240Z,944.61
2018-03-11T01:24:46.257Z,944.62
2018-03-11T01:25:46.275Z,944.58
2018-03-11T01:26:46.293Z,944.59
2018-03-11T01:27:46.311Z,944.53
2018-03-11T01:28:46.328Z,944.56
2018-03-11T01:29:46.349Z,944.55
2018-03-11T01:30:46.364Z,944.5
2018-03-11T01:31:46.385Z,944.48
2018-03-11T01:32:46.401Z,944.48
2018-03-11T01:33:46.419Z,944.53
2018-03-11T01:34:46.445Z,944.45
2018-03-11T01:35:46.457Z,944.47
2018-03-11T01:36:46.475Z,944.46
2018-03-11T01:37:46.543Z,944.47
2018-03-11T01:38:46.518Z,944.46
2018-03-11T01:39:46.528Z,944.44
2018-03-11T01:40:46.548Z,944.41
2018-03-11T01:41:46.566Z,944.44
2018-03-11T01:42:46.584Z,944.4
2018-03-11T01:43:46.603Z,944.37
2018-03-11T01:44:46.620Z,944.33
2018-03-11T01:45:46.639Z,944.3
2018-03-11T01:46:46.658Z,944.29
2018-03-11T01:47:46.675Z,944.25
2018-03-11T01:48:46.693Z,944.24
2018-03-11T01:49:46.711Z,944.2
2018-03-11T01:50:46.729Z,944.24
2018-03-11T01:51:46.746Z,944.21
2018-03-11T01:52:46.815Z,944.23
2018-03-11T01:53:46.801Z,944.21
2018-03-11T01:54:46.802Z,944.2
2018-03-11T01:55:46.818Z,944.22
2018-03-11T01:56:46.844Z,944.16
2018-03-11T01:57:46.855Z,944.14
2018-03-11T01:58:46.872Z,944.13
2018-03-11T01:59:46.891Z,944.15
2018-03-11T02:00:46.910Z,944.18
2018-03-11T02:01:46.929Z,944.18
2018-03-11T02:02:46.946Z,944.17
2018-03-11T02:03:46.964Z,944.16
2018-03-11T02:04:46.987Z,944.1
2018-03-11T02:05:47.001Z,944.07
2018-03-11T02:06:47.024Z,944.06
2018-03-11T02:07:47.036Z,944.07
2018-03-11T02:08:47.107Z,944.05
2018-03-11T02:09:47.073Z,944
2018-03-11T02:10:47.089Z,944
2018-03-11T02:11:47.106Z,943.99
2018-03-11T02:12:47.123Z,943.94
2018-03-11T02:13:47.142Z,943.92
2018-03-11T02:14:47.159Z,943.94
2018-03-11T02:15:47.180Z,943.92
2018-03-11T02:16:47.199Z,943.91
2018-03-11T02:17:47.217Z,943.89
2018-03-11T02:18:47.235Z,943.9
2018-03-11T02:19:47.252Z,943.88
2018-03-11T02:20:47.270Z,943.84
2018-03-11T02:21:47.289Z,943.9
2018-03-11T02:22:47.307Z,943.82
2018-03-11T02:23:47.374Z,943.84
2018-03-11T02:24:47.343Z,943.81
2018-03-11T02:25:47.361Z,943.83
2018-03-11T02:26:47.378Z,943.79
2018-03-11T02:27:47.397Z,943.77
2018-03-11T02:28:47.414Z,943.78
2018-03-11T02:29:47.433Z,943.75
2018-03-11T02:30:47.451Z,943.71
2018-03-11T02:31:47.469Z,943.72
2018-03-11T02:32:47.487Z,943.64
2018-03-11T02:33:47.522Z,943.6
2018-03-11T02:34:47.523Z,943.57
2018-03-11T02:35:47.541Z,943.52
2018-03-11T02:36:47.558Z,943.49
2018-03-11T02:37:47.576Z,943.44
2018-03-11T02:38:47.655Z,943.48
2018-03-11T02:39:47.613Z,943.42
2018-03-11T02:40:47.631Z,943.46
2018-03-11T02:41:47.651Z,943.39
2018-03-11T02:42:47.665Z,943.39
2018-03-11T02:43:47.684Z,943.38
2018-03-11T02:44:47.703Z,943.41
2018-03-11T02:45:47.721Z,943.39
2018-03-11T02:46:47.738Z,943.43
2018-03-11T02:47:47.755Z,943.46
2018-03-11T02:48:47.774Z,943.46
2018-03-11T02:49:47.790Z,943.46
2018-03-11T02:50:47.809Z,943.47
2018-03-11T02:51:47.826Z,943.48
2018-03-11T02:52:47.846Z,943.49
2018-03-11T02:53:47.913Z,943.51
2018-03-11T02:54:47.880Z,943.52
2018-03-11T02:55:47.899Z,943.45
2018-03-11T02:56:47.916Z,943.5
2018-03-11T02:57:47.935Z,943.47
2018-03-11T02:58:47.952Z,943.5
2018-03-11T02:59:47.969Z,943.52
2018-03-11T03:00:48.006Z,943.51
2018-03-11T03:01:48.006Z,943.5
2018-03-11T03:02:48.022Z,943.5
2018-03-11T03:03:48.040Z,943.49
2018-03-11T03:04:48.058Z,943.49
2018-03-11T03:05:48.076Z,943.48
2018-03-11T03:06:48.094Z,943.45
2018-03-11T03:07:48.111Z,943.46
2018-03-11T03:08:48.129Z,943.44
2018-03-11T03:09:48.201Z,943.44
2018-03-11T03:10:48.166Z,943.4
2018-03-11T03:11:48.183Z,943.35
2018-03-11T03:12:48.199Z,943.34
2018-03-11T03:13:48.219Z,943.32
2018-03-11T03:14:48.234Z,943.3
2018-03-11T03:15:48.253Z,943.33
2018-03-11T03:16:48.270Z,943.29
2018-03-11T03:17:48.289Z,943.31
2018-03-11T03:18:48.305Z,943.29
2018-03-11T03:19:48.324Z,943.32
2018-03-11T03:20:48.342Z,943.29
2018-03-11T03:21:48.360Z,943.29
2018-03-11T03:22:48.379Z,943.25
2018-03-11T03:23:48.395Z,943.27
2018-03-11T03:24:48.463Z,943.21
2018-03-11T03:25:48.430Z,943.24
2018-03-11T03:26:48.449Z,943.21
2018-03-11T03:27:48.467Z,943.2
2018-03-11T03:28:48.483Z,943.2
2018-03-11T03:29:48.602Z,943.15
2018-03-11T03:30:48.539Z,943.16
2018-03-11T03:31:48.544Z,943.16
2018-03-11T03:32:48.555Z,943.13
2018-03-11T03:33:48.572Z,943.11
2018-03-11T03:34:48.589Z,943.06
2018-03-11T03:35:48.608Z,943.09
2018-03-11T03:36:48.624Z,943.11
2018-03-11T03:37:48.643Z,943.07
2018-03-11T03:38:48.660Z,943.1
2018-03-11T03:39:48.728Z,943.09
2018-03-11T03:40:48.693Z,943.02
2018-03-11T03:41:48.712Z,943
2018-03-11T03:42:48.729Z,942.99
2018-03-11T03:43:48.746Z,942.98
2018-03-11T03:44:48.863Z,943
2018-03-11T03:45:48.780Z,942.95
2018-03-11T03:46:48.802Z,942.94
2018-03-11T03:47:48.818Z,942.97
2018-03-11T03:48:48.837Z,942.96
2018-03-11T03:49:48.853Z,942.93
2018-03-11T03:50:48.871Z,942.98
2018-03-11T03:51:48.889Z,942.93
2018-03-11T03:52:48.926Z,942.9
2018-03-11T03:53:48.924Z,942.89
2018-03-11T03:54:48.990Z,942.87
2018-03-11T03:55:48.959Z,942.87
2018-03-11T03:56:48.976Z,942.85
2018-03-11T03:57:48.999Z,942.84
2018-03-11T03:58:49.013Z,942.83
2018-03-11T03:59:49.029Z,942.82
2018-03-11T04:00:49.045Z,942.81
2018-03-11T04:01:49.063Z,942.76
2018-03-11T04:02:49.081Z,942.76
2018-03-11T04:03:49.098Z,942.77
2018-03-11T04:04:49.116Z,942.68
2018-03-11T04:05:49.134Z,942.67
2018-03-11T04:06:49.151Z,942.62
2018-03-11T04:07:49.170Z,942.59
2018-03-11T04:08:49.189Z,942.6
2018-03-11T04:09:49.254Z,942.66
2018-03-11T04:10:49.221Z,942.66
2018-03-11T04:11:49.240Z,942.66
2018-03-11T04:12:49.258Z,942.62
2018-03-11T04:13:49.274Z,942.64
2018-03-11T04:14:49.292Z,942.62
2018-03-11T04:15:49.311Z,942.66
2018-03-11T04:16:49.326Z,942.67
2018-03-11T04:17:49.344Z,942.69
2018-03-11T04:18:49.363Z,942.7
2018-03-11T04:19:49.631Z,942.68
2018-03-11T04:20:49.396Z,942.65
2018-03-11T04:21:49.416Z,942.69
2018-03-11T04:22:49.431Z,942.63
2018-03-11T04:23:49.449Z,942.62
2018-03-11T04:24:49.465Z,942.59
2018-03-11T04:25:49.484Z,942.58
2018-03-11T04:26:49.501Z,942.5
2018-03-11T04:27:49.518Z,942.45
2018-03-11T04:28:49.536Z,942.39
2018-03-11T04:29:49.557Z,942.34
2018-03-11T04:30:49.572Z,942.38
2018-03-11T04:31:49.590Z,942.35
2018-03-11T04:32:49.613Z,942.41
2018-03-11T04:33:49.626Z,942.42
2018-03-11T04:34:49.644Z,942.38
2018-03-11T04:35:49.660Z,942.37
2018-03-11T04:36:49.677Z,942.35
2018-03-11T04:37:49.695Z,942.31
2018-03-11T04:38:49.710Z,942.32
2018-03-11T04:39:49.729Z,942.34
2018-03-11T04:40:49.748Z,942.28
2018-03-11T04:41:49.765Z,942.27
2018-03-11T04:42:49.781Z,942.22
2018-03-11T04:43:49.799Z,942.22
2018-03-11T04:44:49.818Z,942.23
2018-03-11T04:45:49.835Z,942.26
2018-03-11T04:46:49.852Z,942.24
2018-03-11T04:47:49.870Z,942.24
2018-03-11T04:48:49.888Z,942.25
2018-03-11T04:49:49.906Z,942.19
2018-03-11T04:50:49.922Z,942.21
2018-03-11T04:51:49.940Z,942.14
2018-03-11T04:52:49.959Z,942.15
2018-03-11T04:53:49.974Z,942.13
2018-03-11T04:54:49.993Z,942.16
2018-03-11T04:55:50.009Z,942.13
2018-03-11T04:56:50.028Z,942.1
2018-03-11T04:57:50.046Z,942.12
2018-03-11T04:58:50.064Z,942.03
2018-03-11T04:59:50.080Z,942.03
2018-03-11T05:00:50.099Z,942.02
2018-03-11T05:01:50.115Z,942.02
2018-03-11T05:02:50.133Z,941.99
2018-03-11T05:03:50.150Z,941.94
2018-03-11T05:04:50.168Z,941.99
2018-03-11T05:05:50.184Z,942.04
2018-03-11T05:06:50.207Z,942.1
2018-03-11T05:07:50.224Z,942.12
2018-03-11T05:08:50.237Z,942.18
2018-03-11T05:09:50.255Z,942.21
2018-03-11T05:10:50.278Z,942.16
2018-03-11T05:11:50.289Z,942.2
2018-03-11T05:12:50.312Z,942.21
2018-03-11T05:13:50.330Z,942.23
2018-03-11T05:14:50.377Z,942.25
2018-03-11T05:15:50.359Z,942.26
2018-03-11T05:16:50.377Z,942.26
2018-03-11T05:17:50.394Z,942.27
2018-03-11T05:18:50.413Z,942.26
2018-03-11T05:19:50.483Z,942.25
2018-03-11T05:20:50.447Z,942.21
2018-03-11T05:21:50.477Z,942.2
2018-03-11T05:22:50.480Z,942.19
2018-03-11T05:23:50.499Z,942.19
2018-03-11T05:24:50.519Z,942.25
2018-03-11T05:25:50.535Z,942.25
2018-03-11T05:26:50.553Z,942.24
2018-03-11T05:27:50.570Z,942.25
2018-03-11T05:28:50.589Z,942.22
2018-03-11T05:29:50.605Z,942.22
2018-03-11T05:30:50.623Z,942.24
2018-03-11T05:31:50.639Z,942.26
2018-03-11T05:32:50.659Z,942.3
2018-03-11T05:33:50.682Z,942.29
2018-03-11T05:34:50.692Z,942.3
2018-03-11T05:35:50.712Z,942.27
2018-03-11T05:36:50.729Z,942.23
2018-03-11T05:37:50.744Z,942.17
2018-03-11T05:38:50.763Z,942.14
2018-03-11T05:39:50.779Z,942.13
2018-03-11T05:40:50.796Z,942.17
2018-03-11T05:41:50.815Z,942.14
2018-03-11T05:42:50.833Z,942.11
2018-03-11T05:43:50.850Z,942.12
2018-03-11T05:44:50.866Z,942.12
2018-03-11T05:45:50.887Z,942.1
2018-03-11T05:46:50.903Z,942.09
2018-03-11T05:47:50.921Z,942.1
2018-03-11T05:48:50.936Z,942.09
2018-03-11T05:49:50.955Z,942.06
2018-03-11T05:50:50.972Z,942.12
2018-03-11T05:51:50.989Z,942.08
2018-03-11T05:52:51.007Z,942.09
2018-03-11T05:53:51.025Z,942.09
2018-03-11T05:54:51.042Z,942.08
2018-03-11T05:55:51.059Z,942.06
2018-03-11T05:56:51.079Z,942.04
2018-03-11T05:57:51.095Z,942
2018-03-11T05:58:51.113Z,941.92
2018-03-11T05:59:51.132Z,941.93
2018-03-11T06:00:51.153Z,941.88
2018-03-11T06:01:51.175Z,941.8
2018-03-11T06:02:51.182Z,941.8
2018-03-11T06:03:51.200Z,941.75
2018-03-11T06:04:51.218Z,941.76
2018-03-11T06:05:51.235Z,941.71
2018-03-11T06:06:51.302Z,941.69
2018-03-11T06:07:51.269Z,941.72
2018-03-11T06:08:51.287Z,941.69
2018-03-11T06:09:51.305Z,941.66
2018-03-11T06:10:51.323Z,941.68
2018-03-11T06:11:51.340Z,941.67
2018-03-11T06:12:51.357Z,941.65
2018-03-11T06:13:51.409Z,941.62
2018-03-11T06:14:51.396Z,941.57
2018-03-11T06:15:51.414Z,941.57
2018-03-11T06:16:51.458Z,941.57
2018-03-11T06:17:51.444Z,941.6
2018-03-11T06:18:51.462Z,941.6
2018-03-11T06:19:51.477Z,941.66
2018-03-11T06:20:51.497Z,941.72
2018-03-11T06:21:51.563Z,941.69
2018-03-11T06:22:51.533Z,941.67
2018-03-11T06:23:51.551Z,941.6
2018-03-11T06:24:51.569Z,941.59
2018-03-11T06:25:51.586Z,941.52
2018-03-11T06:26:51.603Z,941.53
2018-03-11T06:27:51.621Z,941.52
2018-03-11T06:28:51.638Z,941.51
2018-03-11T06:29:51.655Z,941.48
2018-03-11T06:30:51.673Z,941.56
2018-03-11T06:31:51.692Z,941.54
2018-03-11T06:32:51.710Z,941.55
2018-03-11T06:33:51.729Z,941.53
2018-03-11T06:34:51.747Z,941.54
2018-03-11T06:35:51.777Z,941.49
2018-03-11T06:36:51.830Z,941.44
2018-03-11T06:37:51.799Z,941.38
2018-03-11T06:38:51.819Z,941.36
2018-03-11T06:39:51.835Z,941.34
2018-03-11T06:40:51.853Z,941.39
2018-03-11T06:41:51.872Z,941.45
2018-03-11T06:42:51.888Z,941.5
2018-03-11T06:43:51.907Z,941.51
2018-03-11T06:44:51.925Z,941.45
2018-03-11T06:45:51.943Z,941.44
2018-03-11T06:46:51.962Z,941.43
2018-03-11T06:47:51.979Z,941.47
2018-03-11T06:48:51.998Z,941.41
2018-03-11T06:49:52.017Z,941.37
2018-03-11T06:50:52.044Z,941.31
2018-03-11T06:51:52.103Z,941.25
2018-03-11T06:52:52.072Z,941.21
2018-03-11T06:53:52.089Z,941.26
2018-03-11T06:54:52.108Z,941.28
2018-03-11T06:55:52.127Z,941.32
2018-03-11T06:56:52.246Z,941.32
2018-03-11T06:57:52.163Z,941.22
2018-03-11T06:58:52.181Z,941.16
2018-03-11T06:59:52.198Z,941.06
2018-03-11T07:00:52.218Z,940.98
2018-03-11T07:01:52.240Z,940.98
2018-03-11T07:02:52.257Z,940.97
2018-03-11T07:03:52.273Z,940.97
2018-03-11T07:04:52.292Z,940.96
2018-03-11T07:05:52.315Z,940.84
2018-03-11T07:06:52.380Z,940.76
2018-03-11T07:07:52.348Z,940.66
2018-03-11T07:08:52.366Z,940.67
2018-03-11T07:09:52.386Z,940.81
2018-03-11T07:10:52.421Z,940.87
2018-03-11T07:11:52.426Z,941.02
2018-03-11T07:12:52.441Z,940.99
2018-03-11T07:13:52.460Z,940.93
2018-03-11T07:14:52.480Z,940.85
2018-03-11T07:15:52.496Z,940.78
2018-03-11T07:16:52.515Z,940.84
2018-03-11T07:17:52.535Z,940.84
2018-03-11T07:18:52.554Z,940.96
2018-03-11T07:19:52.572Z,941.02
2018-03-11T07:20:52.599Z,940.98
2018-03-11T07:21:52.660Z,940.92
2018-03-11T07:22:52.629Z,940.89
2018-03-11T07:23:52.647Z,940.83
2018-03-11T07:24:52.667Z,940.86
2018-03-11T07:25:52.687Z,940.95
2018-03-11T07:26:52.705Z,940.92
2018-03-11T07:27:52.723Z,940.9
2018-03-11T07:28:52.746Z,940.81
2018-03-11T07:29:52.762Z,940.8
2018-03-11T07:30:52.780Z,940.85
2018-03-11T07:31:52.799Z,940.88
2018-03-11T07:32:52.818Z,941.04
2018-03-11T07:33:52.838Z,941.18
2018-03-11T07:34:52.858Z,941.25
2018-03-11T07:35:52.886Z,941.22
2018-03-11T07:36:52.945Z,941.1
2018-03-11T07:37:52.913Z,940.97
2018-03-11T07:38:52.932Z,940.94
2018-03-11T07:39:52.951Z,941.06
2018-03-11T07:40:52.971Z,941.28
2018-03-11T07:41:52.990Z,941.49
2018-03-11T07:42:53.008Z,941.52
2018-03-11T07:43:53.028Z,941.48
2018-03-11T07:44:53.048Z,941.29
2018-03-11T07:45:53.067Z,941.22
2018-03-11T07:46:53.086Z,941.17
2018-03-11T07:47:53.105Z,941.28
2018-03-11T07:48:53.124Z,941.41
2018-03-11T07:49:53.144Z,941.59
2018-03-11T07:50:53.168Z,941.62
2018-03-11T07:51:53.237Z,941.55
2018-03-11T07:52:53.206Z,941.45
2018-03-11T07:53:53.225Z,941.37
2018-03-11T07:54:53.242Z,941.34
2018-03-11T07:55:53.263Z,941.35
2018-03-11T07:56:53.279Z,941.35
2018-03-11T07:57:53.304Z,941.4
2018-03-11T07:58:53.321Z,941.49
2018-03-11T07:59:53.339Z,941.49
2018-03-11T08:00:53.362Z,941.5
2018-03-11T08:01:53.381Z,941.47
2018-03-11T08:02:53.402Z,941.48
2018-03-11T08:03:53.421Z,941.49
2018-03-11T08:04:53.441Z,941.48
2018-03-11T08:05:53.468Z,941.37
2018-03-11T08:06:53.532Z,941.39
2018-03-11T08:07:53.502Z,941.42
2018-03-11T08:08:53.522Z,941.51
2018-03-11T08:09:53.553Z,941.6
2018-03-11T08:10:53.560Z,941.66
2018-03-11T08:11:53.580Z,941.64
2018-03-11T08:12:53.600Z,941.52
2018-03-11T08:13:53.621Z,941.43
2018-03-11T08:14:53.639Z,941.32
2018-03-11T08:15:53.661Z,941.29
2018-03-11T08:16:53.682Z,941.24
2018-03-11T08:17:53.702Z,941.29
2018-03-11T08:18:53.721Z,941.35
2018-03-11T08:19:53.742Z,941.39
2018-03-11T08:20:53.762Z,941.34
2018-03-11T08:21:53.781Z,941.28
2018-03-11T08:22:54.003Z,941.17
2018-03-11T08:23:53.821Z,941.13
2018-03-11T08:24:53.841Z,941.2
2018-03-11T08:25:53.872Z,941.19
2018-03-11T08:26:53.882Z,941.27
2018-03-11T08:27:53.903Z,941.31
2018-03-11T08:28:53.923Z,941.34
2018-03-11T08:29:53.943Z,941.3
2018-03-11T08:30:53.964Z,941.2
2018-03-11T08:31:53.986Z,941.2
2018-03-11T08:32:54.005Z,941.14
2018-03-11T08:33:54.026Z,941.11
2018-03-11T08:34:54.046Z,941.13
2018-03-11T08:35:54.067Z,941.14
2018-03-11T08:36:54.088Z,941.15
2018-03-11T08:37:54.158Z,941.16
2018-03-11T08:38:54.127Z,941.16
2018-03-11T08:39:54.147Z,941.19
2018-03-11T08:40:54.168Z,941.22
2018-03-11T08:41:54.192Z,941.31
2018-03-11T08:42:54.214Z,941.31
2018-03-11T08:43:54.240Z,941.34
2018-03-11T08:44:54.254Z,941.33
2018-03-11T08:45:54.274Z,941.29
2018-03-11T08:46:54.298Z,941.25
2018-03-11T08:47:54.370Z,941.2
2018-03-11T08:48:54.339Z,941.17
2018-03-11T08:49:54.361Z,941.25
2018-03-11T08:50:54.382Z,941.25
2018-03-11T08:51:54.403Z,941.24
2018-03-11T08:52:54.424Z,941.27
2018-03-11T08:53:54.501Z,941.23
2018-03-11T08:54:54.463Z,941.2
2018-03-11T08:55:54.487Z,941.18
2018-03-11T08:56:54.509Z,941.13
2018-03-11T08:57:54.530Z,941.09
2018-03-11T08:58:54.550Z,941.02
2018-03-11T08:59:54.572Z,941.07
2018-03-11T09:00:54.594Z,941.06
2018-03-11T09:01:54.615Z,940.99
2018-03-11T09:02:54.700Z,940.99
2018-03-11T09:03:54.657Z,941.01
2018-03-11T09:04:54.679Z,940.95
2018-03-11T09:05:54.701Z,940.98
2018-03-11T09:06:54.742Z,940.93
2018-03-11T09:07:54.743Z,940.93
2018-03-11T09:08:54.766Z,940.86
2018-03-11T09:09:54.785Z,940.81
2018-03-11T09:10:54.806Z,940.87
2018-03-11T09:11:54.827Z,940.85
2018-03-11T09:12:54.848Z,940.95
2018-03-11T09:13:54.870Z,940.97
2018-03-11T09:14:54.891Z,941
2018-03-11T09:15:54.914Z,940.97
2018-03-11T09:16:54.934Z,940.98
2018-03-11T09:17:55.006Z,940.99
2018-03-11T09:18:54.978Z,940.98
2018-03-11T09:19:54.999Z,941.02
2018-03-11T09:20:55.020Z,941.02
2018-03-11T09:21:55.046Z,941.06
2018-03-11T09:22:55.065Z,941.03
2018-03-11T09:23:55.136Z,941.06
2018-03-11T09:24:55.106Z,941.05
2018-03-11T09:25:55.129Z,941.03
2018-03-11T09:26:55.152Z,941.06
2018-03-11T09:27:55.174Z,941.01
2018-03-11T09:28:55.344Z,941.03
2018-03-11T09:29:55.217Z,941
2018-03-11T09:30:55.240Z,940.96
2018-03-11T09:31:55.258Z,940.98
2018-03-11T09:32:55.283Z,940.92
2018-03-11T09:33:55.352Z,940.91
2018-03-11T09:34:55.399Z,940.88
2018-03-11T09:35:55.345Z,940.89
2018-03-11T09:36:55.369Z,940.87
2018-03-11T09:37:55.392Z,940.87
2018-03-11T09:38:55.412Z,940.85
2018-03-11T09:39:55.434Z,940.82
2018-03-11T09:40:55.456Z,940.82
2018-03-11T09:41:55.478Z,940.79
2018-03-11T09:42:55.501Z,940.74
2018-03-11T09:43:55.522Z,940.73
2018-03-11T09:44:55.546Z,940.72
2018-03-11T09:45:55.565Z,940.7
2018-03-11T09:46:55.590Z,940.72
2018-03-11T09:47:55.611Z,940.75
2018-03-11T09:48:55.635Z,940.75
2018-03-11T09:49:55.656Z,940.71
2018-03-11T09:50:55.680Z,940.7
2018-03-11T09:51:55.701Z,940.65
2018-03-11T09:52:55.725Z,940.64
2018-03-11T09:53:55.746Z,940.67
2018-03-11T09:54:55.769Z,940.65
2018-03-11T09:55:55.791Z,940.62
2018-03-11T09:56:55.867Z,940.64
2018-03-11T09:57:55.836Z,940.61
2018-03-11T09:58:55.859Z,940.64
2018-03-11T09:59:55.883Z,940.62
2018-03-11T10:00:55.905Z,940.63
2018-03-11T10:01:55.928Z,940.61
2018-03-11T10:02:55.952Z,940.63
2018-03-11T10:03:55.973Z,940.62
2018-03-11T10:04:55.995Z,940.61
2018-03-11T10:05:56.020Z,940.58
2018-03-11T10:06:56.043Z,940.55
2018-03-11T10:07:56.068Z,940.52
2018-03-11T10:08:56.090Z,940.48
2018-03-11T10:09:56.114Z,940.48
2018-03-11T10:10:56.137Z,940.44
2018-03-11T10:11:56.161Z,940.46
2018-03-11T10:12:56.185Z,940.42
2018-03-11T10:13:56.210Z,940.41
2018-03-11T10:14:56.232Z,940.4
2018-03-11T10:15:56.256Z,940.42
2018-03-11T10:16:56.281Z,940.37
2018-03-11T10:17:56.304Z,940.32
2018-03-11T10:18:56.328Z,940.27
2018-03-11T10:19:56.350Z,940.28
2018-03-11T10:20:56.375Z,940.28
2018-03-11T10:21:56.422Z,940.31
2018-03-11T10:22:56.426Z,940.28
2018-03-11T10:23:56.468Z,940.25
2018-03-11T10:24:56.477Z,940.23
2018-03-11T10:25:56.498Z,940.21
2018-03-11T10:26:56.524Z,940.23
2018-03-11T10:27:56.549Z,940.19
2018-03-11T10:28:56.575Z,940.22
2018-03-11T10:29:56.599Z,940.22
2018-03-11T10:30:56.624Z,940.23
2018-03-11T10:31:56.650Z,940.19
2018-03-11T10:32:56.674Z,940.17
2018-03-11T10:33:56.703Z,940.15
2018-03-11T10:34:56.724Z,940.1
2018-03-11T10:35:56.749Z,940.06
2018-03-11T10:36:56.775Z,940.06
2018-03-11T10:37:56.798Z,940.1
2018-03-11T10:38:56.822Z,940.04
2018-03-11T10:39:56.849Z,940.06
2018-03-11T10:40:56.873Z,940.06
2018-03-11T10:41:56.895Z,940.02
2018-03-11T10:42:56.921Z,939.98
2018-03-11T10:43:56.945Z,939.98
2018-03-11T10:44:56.970Z,939.98
2018-03-11T10:45:56.996Z,939.98
2018-03-11T10:46:57.019Z,939.96
2018-03-11T10:47:57.043Z,939.92
2018-03-11T10:48:57.067Z,939.88
2018-03-11T10:49:57.093Z,939.86
2018-03-11T10:50:57.126Z,939.82
2018-03-11T10:51:57.141Z,939.8
2018-03-11T10:52:57.173Z,939.76
2018-03-11T10:53:57.193Z,939.74
2018-03-11T10:54:57.216Z,939.74
2018-03-11T10:55:57.240Z,939.77
2018-03-11T10:56:57.265Z,939.72
2018-03-11T10:57:57.289Z,939.72
2018-03-11T10:58:57.313Z,939.76
2018-03-11T10:59:57.337Z,939.75
2018-03-11T11:00:57.363Z,939.73
2018-03-11T11:01:57.385Z,939.74
2018-03-11T11:02:57.408Z,939.75
2018-03-11T11:03:57.434Z,939.72
2018-03-11T11:04:57.461Z,939.72
2018-03-11T11:05:57.485Z,939.68
2018-03-11T11:06:57.508Z,939.67
2018-03-11T11:07:57.532Z,939.62
2018-03-11T11:08:57.557Z,939.6
2018-03-11T11:09:57.584Z,939.55
2018-03-11T11:10:57.626Z,939.53
2018-03-11T11:11:57.629Z,939.55
2018-03-11T11:12:57.654Z,939.6
2018-03-11T11:13:57.677Z,939.57
2018-03-11T11:14:57.699Z,939.57
2018-03-11T11:15:57.723Z,939.57
2018-03-11T11:16:57.746Z,939.56
2018-03-11T11:17:57.772Z,939.52
2018-03-11T11:18:57.795Z,939.48
2018-03-11T11:19:57.821Z,939.47
2018-03-11T11:20:57.848Z,939.44
2018-03-11T11:21:57.873Z,939.43
2018-03-11T11:22:57.898Z,939.44
2018-03-11T11:23:57.923Z,939.48
2018-03-11T11:24:57.948Z,939.5
2018-03-11T11:25:57.972Z,939.51
2018-03-11T11:26:57.998Z,939.41
2018-03-11T11:27:58.023Z,939.48
2018-03-11T11:28:58.048Z,939.44
2018-03-11T11:29:58.076Z,939.43
2018-03-11T11:30:58.103Z,939.43
2018-03-11T11:31:58.129Z,939.5
2018-03-11T11:32:58.155Z,939.48
2018-03-11T11:33:58.182Z,939.32
2018-03-11T11:34:58.211Z,939.34
2018-03-11T11:35:58.238Z,939.32
2018-03-11T11:36:58.271Z,939.33
2018-03-11T11:37:58.296Z,939.34
2018-03-11T11:38:58.321Z,939.35
2018-03-11T11:39:58.348Z,939.39
2018-03-11T11:40:58.376Z,939.31
2018-03-11T11:41:58.403Z,939.27
2018-03-11T11:42:58.430Z,939.24
2018-03-11T11:43:58.460Z,939.16
2018-03-11T11:44:58.489Z,939.12
2018-03-11T11:45:58.517Z,939.03
2018-03-11T11:46:58.546Z,938.99
2018-03-11T11:47:58.574Z,938.94
2018-03-11T11:48:58.602Z,938.9
2018-03-11T11:49:58.630Z,938.88
2018-03-11T11:50:58.661Z,938.85
2018-03-11T11:51:58.688Z,938.84
2018-03-11T11:52:58.717Z,938.83
2018-03-11T11:53:58.745Z,938.8
2018-03-11T11:54:58.774Z,938.77
2018-03-11T11:55:58.803Z,938.81
2018-03-11T11:56:58.831Z,938.78
2018-03-11T11:57:58.858Z,938.75
2018-03-11T11:58:58.887Z,938.72
2018-03-11T11:59:58.915Z,938.67
2018-03-11T12:00:58.942Z,938.62
2018-03-11T12:01:58.971Z,938.6
2018-03-11T12:02:58.998Z,938.62
2018-03-11T12:03:59.026Z,938.6
2018-03-11T12:04:59.054Z,938.61
2018-03-11T12:05:59.083Z,938.59
2018-03-11T12:06:59.147Z,938.58
2018-03-11T12:07:59.136Z,938.61
2018-03-11T12:08:59.166Z,938.59
2018-03-11T12:09:59.191Z,938.59
2018-03-11T12:10:59.219Z,938.59
2018-03-11T12:11:59.245Z,938.58
2018-03-11T12:12:59.273Z,938.57
2018-03-11T12:13:59.300Z,938.54
2018-03-11T12:14:59.330Z,938.54
2018-03-11T12:15:59.355Z,938.65
2018-03-11T12:16:59.383Z,938.69
2018-03-11T12:17:59.410Z,938.77
2018-03-11T12:18:59.438Z,938.69
2018-03-11T12:19:59.514Z,938.55
2018-03-11T12:20:59.494Z,938.51
2018-03-11T12:21:59.521Z,938.52
2018-03-11T12:22:59.551Z,938.51
2018-03-11T12:23:59.586Z,938.58
2018-03-11T12:24:59.608Z,938.74
2018-03-11T12:25:59.636Z,938.68
2018-03-11T12:26:59.665Z,938.7
2018-03-11T12:27:59.697Z,938.67
2018-03-11T12:28:59.729Z,938.53
2018-03-11T12:29:59.754Z,938.35
2018-03-11T12:30:59.807Z,938.46
2018-03-11T12:31:59.816Z,938.47